Time;durP1;ratioP1;P1;durP2;ratioP2;P2;SDS_P1;SDS_P2;PMS_P1;PMS_P2;Temp;Humidity;BMP_temperature;BMP_pressure;BME280_temperature;BME280_humidity;BME280_pressure;Samples;Min_cycle;Max_cycle;Signal;HPM_P1;HPM_P2
2021/05/20 00:01:19;;;;;;;9.10;1.70;;;;;;;;;;5065606;28;20191;-76
2021/05/20 00:03:45;;;;;;;6.13;1.83;;;;;;;;;;5060937;28;20626;-77
2021/05/20 00:06:11;;;;;;;1.48;1.05;;;;;;;;;;5061334;28;20204;-77
2021/05/20 00:08:37;;;;;;;1.90;1.20;;;;;;;;;;5064919;28;20603;-77
2021/05/20 00:11:03;;;;;;;2.60;1.10;;;;;;;;;;5064521;28;20217;-77
2021/05/20 00:13:29;;;;;;;1.10;1.00;;;;;;;;;;5060078;28;20203;-76
2021/05/20 00:15:55;;;;;;;2.75;1.30;;;;;;;;;;5059770;28;20189;-77
2021/05/20 00:18:21;;;;;;;2.90;1.43;;;;;;;;;;5064675;28;20212;-77
2021/05/20 00:20:46;;;;;;;5.20;1.47;;;;;;;;;;5061888;28;20450;-77
2021/05/20 00:23:13;;;;;;;2.10;1.27;;;;;;;;;;5062104;28;20432;-77
2021/05/20 00:25:38;;;;;;;2.58;1.52;;;;;;;;;;5059614;28;20177;-77
2021/05/20 00:28:05;;;;;;;4.30;1.60;;;;;;;;;;5060088;28;20181;-77
2021/05/20 00:30:31;;;;;;;3.05;1.40;;;;;;;;;;5058417;28;20242;-76
2021/05/20 00:32:57;;;;;;;3.88;1.92;;;;;;;;;;5060481;28;20185;-76
2021/05/20 00:35:23;;;;;;;2.53;1.63;;;;;;;;;;5064781;28;20271;-76
2021/05/20 00:37:49;;;;;;;2.10;1.35;;;;;;;;;;5059155;28;20431;-77
2021/05/20 00:40:15;;;;;;;1.73;1.08;;;;;;;;;;5064986;28;20181;-76
2021/05/20 00:42:48;;;;;;;3.55;1.65;;;;;;;;;;5059767;28;20272;-77
2021/05/20 00:45:14;;;;;;;1.73;1.45;;;;;;;;;;5059960;28;20200;-78
2021/05/20 00:47:40;;;;;;;1.63;1.20;;;;;;;;;;5062474;28;20190;-77
2021/05/20 00:50:08;;;;;;;3.45;1.23;;;;;;;;;;5060236;28;20258;-77
2021/05/20 00:52:34;;;;;;;2.35;1.30;;;;;;;;;;5059397;28;20181;-76
2021/05/20 00:55:02;;;;;;;3.13;1.25;;;;;;;;;;5059478;28;20696;-77
2021/05/20 00:57:28;;;;;;;3.38;1.33;;;;;;;;;;5062686;28;20279;-76
2021/05/20 00:59:54;;;;;;;2.25;1.30;;;;;;;;;;5066722;28;20238;-76
2021/05/20 01:02:21;;;;;;;5.47;1.58;;;;;;;;;;5070684;28;20178;-76
2021/05/20 01:04:47;;;;;;;3.30;2.53;;;;;;;;;;5063151;28;20185;-77
2021/05/20 01:07:13;;;;;;;2.95;1.63;;;;;;;;;;5058798;28;20172;-77
2021/05/20 01:09:39;;;;;;;2.38;1.45;;;;;;;;;;5058372;28;20650;-77
2021/05/20 01:12:09;;;;;;;2.92;1.92;;;;;;;;;;5063065;28;20193;-77
2021/05/20 01:14:38;;;;;;;3.50;1.63;;;;;;;;;;5063141;28;20571;-77
2021/05/20 01:17:05;;;;;;;5.82;1.50;;;;;;;;;;5063795;28;20181;-77
2021/05/20 01:19:31;;;;;;;3.78;1.50;;;;;;;;;;5062690;28;20173;-77
2021/05/20 01:21:57;;;;;;;7.22;1.30;;;;;;;;;;5061614;28;20193;-78
2021/05/20 01:24:23;;;;;;;4.50;2.47;;;;;;;;;;5058641;28;20190;-77
2021/05/20 01:26:49;;;;;;;3.45;1.25;;;;;;;;;;5056481;28;20658;-77
2021/05/20 01:29:15;;;;;;;4.00;1.70;;;;;;;;;;5060925;28;20253;-77
2021/05/20 01:31:41;;;;;;;2.15;1.42;;;;;;;;;;5073240;28;20176;-78
2021/05/20 01:34:08;;;;;;;3.33;1.35;;;;;;;;;;5059286;28;20585;-77
2021/05/20 01:36:34;;;;;;;3.35;1.77;;;;;;;;;;5063344;28;20173;-77
2021/05/20 01:39:01;;;;;;;3.33;1.27;;;;;;;;;;5074116;28;20189;-77
2021/05/20 01:41:27;;;;;;;2.70;1.52;;;;;;;;;;5071537;28;20428;-77
2021/05/20 01:43:53;;;;;;;3.42;1.50;;;;;;;;;;5062910;28;20187;-77
2021/05/20 01:46:20;;;;;;;4.90;1.63;;;;;;;;;;5062890;28;20177;-77
2021/05/20 01:48:46;;;;;;;2.78;1.63;;;;;;;;;;5057462;28;20181;-77
2021/05/20 01:51:16;;;;;;;2.75;1.70;;;;;;;;;;5058677;28;20181;-77
2021/05/20 01:53:44;;;;;;;3.08;1.63;;;;;;;;;;5061474;28;20704;-77
2021/05/20 01:56:10;;;;;;;2.22;1.52;;;;;;;;;;5072295;28;20670;-76
2021/05/20 01:58:37;;;;;;;3.85;1.45;;;;;;;;;;5061736;28;20263;-77
2021/05/20 02:01:03;;;;;;;5.68;1.85;;;;;;;;;;5061884;28;20179;-77
2021/05/20 02:03:29;;;;;;;1.42;1.33;;;;;;;;;;5057751;28;20177;-78
2021/05/20 02:05:58;;;;;;;4.07;1.60;;;;;;;;;;5059360;28;20185;-77
2021/05/20 02:08:27;;;;;;;2.20;1.75;;;;;;;;;;5062405;28;20255;-77
2021/05/20 02:10:53;;;;;;;6.18;1.85;;;;;;;;;;5072088;28;20224;-76
2021/05/20 02:13:20;;;;;;;3.72;2.00;;;;;;;;;;5058432;28;20192;-76
2021/05/20 02:15:46;;;;;;;2.33;1.58;;;;;;;;;;5057408;28;20587;-77
2021/05/20 02:18:12;;;;;;;7.10;1.48;;;;;;;;;;5063434;28;20185;-77
2021/05/20 02:20:38;;;;;;;3.35;1.40;;;;;;;;;;5067838;28;20213;-77
2021/05/20 02:23:05;;;;;;;1.40;1.30;;;;;;;;;;5080484;28;20183;-77
2021/05/20 02:25:31;;;;;;;2.20;1.10;;;;;;;;;;5069617;28;20210;-77
2021/05/20 02:27:57;;;;;;;5.13;2.40;;;;;;;;;;5064991;28;20161;-77
2021/05/20 02:30:23;;;;;;;1.83;1.50;;;;;;;;;;5064923;28;20188;-77
2021/05/20 02:32:50;;;;;;;3.17;1.98;;;;;;;;;;5081584;28;20181;-77
2021/05/20 02:35:16;;;;;;;4.10;1.40;;;;;;;;;;5066922;28;20458;-77
2021/05/20 02:37:42;;;;;;;2.30;1.70;;;;;;;;;;5068395;28;20173;-77
2021/05/20 02:40:09;;;;;;;3.85;1.48;;;;;;;;;;5068445;28;20204;-77
2021/05/20 02:42:35;;;;;;;1.83;1.15;;;;;;;;;;5084081;28;20180;-77
2021/05/20 02:45:02;;;;;;;5.63;2.00;;;;;;;;;;5063454;28;20272;-78
2021/05/20 02:47:28;;;;;;;4.15;1.50;;;;;;;;;;5067059;28;20180;-77
2021/05/20 02:49:54;;;;;;;3.15;1.45;;;;;;;;;;5068276;28;20685;-77
2021/05/20 02:52:20;;;;;;;2.00;1.60;;;;;;;;;;5055757;28;20186;-77
2021/05/20 02:54:46;;;;;;;5.25;1.55;;;;;;;;;;5064466;28;20209;-77
2021/05/20 02:57:12;;;;;;;2.42;1.20;;;;;;;;;;5064907;28;20185;-77
2021/05/20 02:59:38;;;;;;;2.50;1.95;;;;;;;;;;5082872;28;20654;-77
2021/05/20 03:02:06;;;;;;;3.10;1.60;;;;;;;;;;5067697;28;20658;-77
2021/05/20 03:04:32;;;;;;;3.35;2.05;;;;;;;;;;5069435;28;20196;-77
2021/05/20 03:06:59;;;;;;;2.75;1.63;;;;;;;;;;5064515;28;20172;-77
2021/05/20 03:09:25;;;;;;;2.15;1.30;;;;;;;;;;5063467;28;20628;-77
2021/05/20 03:11:51;;;;;;;2.25;1.55;;;;;;;;;;5061274;28;20186;-76
2021/05/20 03:14:17;;;;;;;5.47;1.83;;;;;;;;;;5079407;28;20201;-77
2021/05/20 03:16:43;;;;;;;3.88;2.03;;;;;;;;;;5064851;28;20232;-77
2021/05/20 03:19:09;;;;;;;2.63;1.35;;;;;;;;;;5069322;28;20176;-77
2021/05/20 03:21:35;;;;;;;1.58;1.48;;;;;;;;;;5064429;28;20181;-77
2021/05/20 03:24:01;;;;;;;2.65;2.10;;;;;;;;;;5063762;28;20242;-77
2021/05/20 03:26:28;;;;;;;4.18;1.80;;;;;;;;;;5077703;28;20173;-76
2021/05/20 03:28:54;;;;;;;2.20;1.70;;;;;;;;;;5060137;28;20519;-77
2021/05/20 03:31:20;;;;;;;3.65;1.65;;;;;;;;;;5064952;28;20196;-76
2021/05/20 03:33:46;;;;;;;5.40;1.83;;;;;;;;;;5060241;28;20181;-76
2021/05/20 03:36:12;;;;;;;4.72;1.80;;;;;;;;;;5060119;28;20213;-77
2021/05/20 03:38:38;;;;;;;1.98;1.40;;;;;;;;;;5065655;28;20240;-77
2021/05/20 03:41:04;;;;;;;9.18;1.85;;;;;;;;;;5076227;28;20259;-77
2021/05/20 03:43:33;;;;;;;3.05;1.40;;;;;;;;;;5075528;28;20172;-77
2021/05/20 03:45:59;;;;;;;5.80;1.65;;;;;;;;;;5065102;28;20181;-77
2021/05/20 03:48:25;;;;;;;2.00;1.80;;;;;;;;;;5061200;28;20189;-77
2021/05/20 03:50:51;;;;;;;2.38;1.70;;;;;;;;;;5061948;28;20189;-77
2021/05/20 03:53:18;;;;;;;4.57;1.73;;;;;;;;;;5076430;28;20288;-77
2021/05/20 03:55:46;;;;;;;4.30;1.63;;;;;;;;;;5056937;28;20235;-77
2021/05/20 03:58:12;;;;;;;3.25;1.45;;;;;;;;;;5060058;28;20166;-77
2021/05/20 04:00:38;;;;;;;5.25;1.77;;;;;;;;;;5060966;28;20279;-77
2021/05/20 04:03:04;;;;;;;5.85;2.90;;;;;;;;;;5059857;28;20182;-77
2021/05/20 04:05:30;;;;;;;4.47;1.65;;;;;;;;;;5064055;28;20181;-77
2021/05/20 04:07:56;;;;;;;5.88;1.45;;;;;;;;;;5060036;28;20583;-76
2021/05/20 04:10:24;;;;;;;5.43;1.35;;;;;;;;;;5060373;28;20228;-77
2021/05/20 04:12:50;;;;;;;4.30;1.45;;;;;;;;;;5060661;28;20243;-77
2021/05/20 04:15:16;;;;;;;2.65;1.88;;;;;;;;;;5074922;28;20209;-77
2021/05/20 04:17:43;;;;;;;4.10;1.33;;;;;;;;;;5062777;28;20189;-76
2021/05/20 04:20:09;;;;;;;4.80;1.50;;;;;;;;;;5061296;28;20197;-77
2021/05/20 04:22:35;;;;;;;3.20;1.70;;;;;;;;;;5059109;28;20205;-77
2021/05/20 04:25:01;;;;;;;5.25;2.22;;;;;;;;;;5064589;28;20619;-77
2021/05/20 04:27:27;;;;;;;2.88;1.70;;;;;;;;;;5060538;28;20217;-76
2021/05/20 04:29:53;;;;;;;1.75;1.30;;;;;;;;;;5060646;28;20192;-77
2021/05/20 04:32:19;;;;;;;3.73;1.70;;;;;;;;;;5062764;28;20185;-77
2021/05/20 04:34:45;;;;;;;3.70;1.45;;;;;;;;;;5063046;28;20467;-76
2021/05/20 04:37:11;;;;;;;2.60;1.50;;;;;;;;;;5063974;28;20173;-75
2021/05/20 04:39:37;;;;;;;2.38;1.40;;;;;;;;;;5059054;28;20181;-76
2021/05/20 04:42:04;;;;;;;1.80;1.70;;;;;;;;;;5058299;28;20186;-76
2021/05/20 04:44:30;;;;;;;6.13;1.83;;;;;;;;;;5063662;28;20412;-76
2021/05/20 04:46:56;;;;;;;3.28;1.90;;;;;;;;;;5064762;28;20443;-76
2021/05/20 04:49:22;;;;;;;5.60;2.20;;;;;;;;;;5075942;28;20605;-76
2021/05/20 04:51:48;;;;;;;4.55;2.17;;;;;;;;;;5079171;28;20431;-77
2021/05/20 04:54:14;;;;;;;2.58;1.60;;;;;;;;;;5057748;28;20202;-76
2021/05/20 04:56:40;;;;;;;5.18;1.95;;;;;;;;;;5060684;28;20204;-76
2021/05/20 04:59:06;;;;;;;4.05;1.40;;;;;;;;;;5059513;28;20173;-76
2021/05/20 05:01:33;;;;;;;3.08;1.70;;;;;;;;;;5074627;28;20223;-76
2021/05/20 05:03:59;;;;;;;3.65;2.00;;;;;;;;;;5061938;28;20176;-76
2021/05/20 05:06:25;;;;;;;4.68;2.80;;;;;;;;;;5059745;28;20253;-75
2021/05/20 05:08:51;;;;;;;4.13;1.58;;;;;;;;;;5061124;28;20630;-75
2021/05/20 05:11:17;;;;;;;2.25;2.05;;;;;;;;;;5074039;28;20227;-76
2021/05/20 05:13:43;;;;;;;2.63;1.58;;;;;;;;;;5063507;28;20203;-76
2021/05/20 05:16:09;;;;;;;2.30;1.40;;;;;;;;;;5062862;28;20314;-76
2021/05/20 05:18:35;;;;;;;4.95;2.10;;;;;;;;;;5058228;28;20199;-75
2021/05/20 05:21:02;;;;;;;4.28;1.70;;;;;;;;;;5066277;28;20188;-76
2021/05/20 05:23:29;;;;;;;3.30;1.30;;;;;;;;;;5059594;28;20237;-76
2021/05/20 05:25:55;;;;;;;3.17;1.60;;;;;;;;;;5058714;28;20188;-76
2021/05/20 05:28:21;;;;;;;2.45;1.70;;;;;;;;;;5059191;28;20196;-76
2021/05/20 05:30:47;;;;;;;4.93;1.70;;;;;;;;;;5058089;28;20253;-76
2021/05/20 05:33:13;;;;;;;3.83;1.80;;;;;;;;;;5057398;28;20247;-76
2021/05/20 05:35:39;;;;;;;3.17;1.55;;;;;;;;;;5057685;28;20255;-76
2021/05/20 05:38:05;;;;;;;2.67;1.60;;;;;;;;;;5059921;28;20546;-76
2021/05/20 05:40:31;;;;;;;6.88;3.78;;;;;;;;;;5073512;28;20177;-76
2021/05/20 05:42:57;;;;;;;3.03;1.52;;;;;;;;;;5061841;28;20165;-76
2021/05/20 05:45:23;;;;;;;2.95;1.77;;;;;;;;;;5057639;28;20197;-76
2021/05/20 05:47:49;;;;;;;2.72;1.65;;;;;;;;;;5059759;28;20188;-77
2021/05/20 05:50:15;;;;;;;3.22;1.55;;;;;;;;;;5073409;28;20185;-77
2021/05/20 05:52:42;;;;;;;2.75;1.77;;;;;;;;;;5062814;28;20696;-76
2021/05/20 05:55:09;;;;;;;6.60;1.73;;;;;;;;;;5055779;28;20201;-77
2021/05/20 05:57:35;;;;;;;6.35;1.60;;;;;;;;;;5063120;28;20191;-76
2021/05/20 06:00:01;;;;;;;6.97;2.00;;;;;;;;;;5058793;28;20182;-76
2021/05/20 06:02:27;;;;;;;3.28;1.70;;;;;;;;;;5062017;28;20209;-76
2021/05/20 06:04:53;;;;;;;2.65;1.40;;;;;;;;;;5057629;28;20187;-77
2021/05/20 06:07:20;;;;;;;5.13;1.80;;;;;;;;;;5063005;28;20169;-77
2021/05/20 06:09:46;;;;;;;4.57;1.70;;;;;;;;;;5058419;28;20212;-76
2021/05/20 06:12:12;;;;;;;2.40;1.85;;;;;;;;;;5058622;28;20185;-76
2021/05/20 06:14:40;;;;;;;3.88;1.45;;;;;;;;;;5060995;28;20227;-77
2021/05/20 06:17:09;;;;;;;4.72;1.48;;;;;;;;;;5058879;28;20173;-76
2021/05/20 06:19:36;;;;;;;5.75;1.65;;;;;;;;;;5057456;28;20298;-78
2021/05/20 06:22:02;;;;;;;9.60;2.08;;;;;;;;;;5062563;28;20562;-77
2021/05/20 06:24:28;;;;;;;3.63;1.92;;;;;;;;;;5056978;28;21340;-78
2021/05/20 06:26:54;;;;;;;4.13;1.63;;;;;;;;;;5062800;28;20183;-77
2021/05/20 06:29:20;;;;;;;2.30;1.45;;;;;;;;;;5062915;28;20268;-77
2021/05/20 06:31:46;;;;;;;4.53;1.52;;;;;;;;;;5062544;28;20197;-77
2021/05/20 06:34:12;;;;;;;3.10;1.60;;;;;;;;;;5061905;28;20181;-77
2021/05/20 06:36:38;;;;;;;7.00;2.03;;;;;;;;;;5063099;28;20311;-76
2021/05/20 06:39:10;;;;;;;4.45;1.40;;;;;;;;;;5058056;28;20178;-76
2021/05/20 06:41:36;;;;;;;2.70;1.48;;;;;;;;;;5061494;28;20559;-77
2021/05/20 06:44:02;;;;;;;7.43;1.40;;;;;;;;;;5058547;28;20181;-77
2021/05/20 06:46:28;;;;;;;8.00;1.70;;;;;;;;;;5072542;28;20500;-78
2021/05/20 06:48:54;;;;;;;4.72;1.40;;;;;;;;;;5057393;28;20185;-78
2021/05/20 06:51:20;;;;;;;5.63;1.45;;;;;;;;;;5056909;28;20480;-77
2021/05/20 06:53:48;;;;;;;2.83;1.38;;;;;;;;;;5059756;28;20192;-77
2021/05/20 06:56:21;;;;;;;5.60;1.90;;;;;;;;;;5070203;28;20204;-77
2021/05/20 07:01:31;;;;;;;2.08;1.30;;;;;;;;;;5059179;28;20255;-77
2021/05/20 07:03:58;;;;;;;3.25;1.30;;;;;;;;;;5072205;28;20249;-76
2021/05/20 07:06:24;;;;;;;2.10;1.50;;;;;;;;;;5062021;28;20181;-78
2021/05/20 07:08:50;;;;;;;8.18;1.63;;;;;;;;;;5081120;28;20188;-78
2021/05/20 07:11:16;;;;;;;3.30;1.73;;;;;;;;;;5065934;28;20221;-77
2021/05/20 07:13:42;;;;;;;3.75;1.38;;;;;;;;;;5060840;28;20175;-77
2021/05/20 07:16:08;;;;;;;4.88;1.27;;;;;;;;;;5064750;28;20234;-78
2021/05/20 07:18:34;;;;;;;3.63;1.38;;;;;;;;;;5075965;28;20177;-78
2021/05/20 07:21:00;;;;;;;1.75;1.00;;;;;;;;;;5061441;28;20201;-77
2021/05/20 07:23:27;;;;;;;1.20;1.10;;;;;;;;;;5064858;28;20177;-78
2021/05/20 07:25:53;;;;;;;2.50;1.30;;;;;;;;;;5060606;28;20439;-79
2021/05/20 07:28:22;;;;;;;2.67;1.30;;;;;;;;;;5065433;28;20169;-78
2021/05/20 07:30:48;;;;;;;2.53;1.10;;;;;;;;;;5060730;28;20185;-78
2021/05/20 07:33:14;;;;;;;4.20;1.50;;;;;;;;;;5061430;28;20214;-77
2021/05/20 07:35:40;;;;;;;3.17;1.33;;;;;;;;;;5063731;28;20205;-77
2021/05/20 07:38:06;;;;;;;1.90;1.40;;;;;;;;;;5061981;28;20527;-78
2021/05/20 07:40:32;;;;;;;5.22;1.40;;;;;;;;;;5075814;28;20635;-79
2021/05/20 07:42:58;;;;;;;3.50;1.40;;;;;;;;;;5059938;28;20203;-78
2021/05/20 07:45:24;;;;;;;3.15;1.35;;;;;;;;;;5060579;28;20964;-76
2021/05/20 07:47:50;;;;;;;1.85;1.42;;;;;;;;;;5077656;28;20190;-76
2021/05/20 07:50:17;;;;;;;1.95;1.08;;;;;;;;;;5062929;28;20185;-76
2021/05/20 07:52:43;;;;;;;1.95;1.13;;;;;;;;;;5065440;28;20235;-79
2021/05/20 07:55:10;;;;;;;3.08;1.10;;;;;;;;;;5061359;28;20205;-78
2021/05/20 07:57:36;;;;;;;2.38;1.10;;;;;;;;;;5059170;28;20200;-77
2021/05/20 08:00:02;;;;;;;3.53;1.13;;;;;;;;;;5060275;28;20647;-78
2021/05/20 08:02:34;;;;;;;1.88;1.10;;;;;;;;;;5074246;28;20182;-78
2021/05/20 08:05:09;;;;;;;2.45;0.98;;;;;;;;;;5079804;28;20203;-77
2021/05/20 08:12:37;;;;;;;3.60;0.90;;;;;;;;;;5059279;28;20208;-77
2021/05/20 08:15:04;;;;;;;3.65;1.20;;;;;;;;;;5059344;28;20213;-78
2021/05/20 08:17:30;;;;;;;2.83;0.93;;;;;;;;;;5073873;28;20177;-78
2021/05/20 08:19:56;;;;;;;2.38;1.27;;;;;;;;;;5080034;28;20182;-78
2021/05/20 08:22:22;;;;;;;2.47;1.15;;;;;;;;;;5077281;28;20173;-77
2021/05/20 08:24:48;;;;;;;2.13;1.07;;;;;;;;;;5062360;28;20191;-78
2021/05/20 08:27:14;;;;;;;2.47;1.47;;;;;;;;;;5058764;28;20499;-77
2021/05/20 08:29:42;;;;;;;0.93;0.83;;;;;;;;;;5058635;28;20454;-85
2021/05/20 08:32:08;;;;;;;3.42;1.20;;;;;;;;;;5061419;28;20477;-85
2021/05/20 08:34:34;;;;;;;1.63;0.90;;;;;;;;;;5062961;28;20193;-84
2021/05/20 08:37:03;;;;;;;2.08;1.00;;;;;;;;;;5064771;28;20185;-86
2021/05/20 08:39:29;;;;;;;2.45;1.10;;;;;;;;;;5059266;28;20177;-84
2021/05/20 08:41:55;;;;;;;3.97;1.30;;;;;;;;;;5060716;28;20184;-84
2021/05/20 08:44:24;;;;;;;2.10;0.95;;;;;;;;;;5064322;28;20185;-83
2021/05/20 08:46:50;;;;;;;2.72;1.02;;;;;;;;;;5059381;28;20189;-84
2021/05/20 08:49:16;;;;;;;1.75;1.52;;;;;;;;;;5060710;28;20232;-85
2021/05/20 08:51:49;;;;;;;1.60;1.00;;;;;;;;;;5060180;28;20212;-86
2021/05/20 08:54:15;;;;;;;1.92;1.10;;;;;;;;;;5057587;28;20190;-85
2021/05/20 08:56:46;;;;;;;3.75;1.48;;;;;;;;;;5061007;28;20174;-87
2021/05/20 08:59:12;;;;;;;4.35;1.45;;;;;;;;;;5073589;28;20249;-85
2021/05/20 09:01:42;;;;;;;1.52;1.00;;;;;;;;;;5062814;28;20245;-85
2021/05/20 09:04:08;;;;;;;2.28;1.10;;;;;;;;;;5057835;28;20165;-87
2021/05/20 09:06:39;;;;;;;3.00;1.48;;;;;;;;;;5064019;28;20238;-86
2021/05/20 09:09:10;;;;;;;3.70;1.08;;;;;;;;;;5060002;28;20210;-87
2021/05/20 09:11:36;;;;;;;1.10;1.00;;;;;;;;;;5048401;28;20225;-85
2021/05/20 09:14:03;;;;;;;6.60;1.42;;;;;;;;;;5075359;28;20183;-86
2021/05/20 09:16:29;;;;;;;4.93;1.20;;;;;;;;;;5063920;28;20173;-84
2021/05/20 09:18:59;;;;;;;2.20;1.40;;;;;;;;;;5059228;28;20177;-85
2021/05/20 09:21:25;;;;;;;3.28;1.42;;;;;;;;;;5058368;28;20638;-85
2021/05/20 09:23:51;;;;;;;2.08;1.40;;;;;;;;;;5056754;28;20173;-83
2021/05/20 09:26:17;;;;;;;4.18;1.45;;;;;;;;;;5061188;28;20197;-85
2021/05/20 09:28:47;;;;;;;2.53;2.33;;;;;;;;;;5058057;28;20214;-85
2021/05/20 09:31:16;;;;;;;1.63;0.80;;;;;;;;;;5059076;28;20185;-85
2021/05/20 09:33:55;;;;;;;1.48;0.95;;;;;;;;;;5058279;28;20205;-83
2021/05/20 09:36:21;;;;;;;3.10;1.25;;;;;;;;;;5059243;28;20236;-85
2021/05/20 09:38:47;;;;;;;3.65;1.50;;;;;;;;;;5063810;28;20181;-85
2021/05/20 09:41:17;;;;;;;3.57;1.00;;;;;;;;;;5077565;28;20216;-87
2021/05/20 09:43:44;;;;;;;1.88;1.00;;;;;;;;;;5058342;28;20444;-85
2021/05/20 09:46:14;;;;;;;1.50;1.15;;;;;;;;;;5058262;28;20180;-84
2021/05/20 09:48:42;;;;;;;2.88;1.70;;;;;;;;;;5063224;28;20189;-84
2021/05/20 09:51:19;;;;;;;3.15;0.90;;;;;;;;;;5058591;28;20189;-83
2021/05/20 09:53:47;;;;;;;1.83;1.25;;;;;;;;;;5052232;28;20191;-84
2021/05/20 09:56:13;;;;;;;1.73;1.20;;;;;;;;;;5057141;28;20197;-83
2021/05/20 09:58:39;;;;;;;4.53;0.97;;;;;;;;;;5063233;28;20553;-81
2021/05/20 10:01:17;;;;;;;3.23;1.13;;;;;;;;;;5058174;28;20414;-86
2021/05/20 10:03:52;;;;;;;1.75;1.00;;;;;;;;;;5063058;28;20426;-84
2021/05/20 10:06:34;;;;;;;4.45;1.10;;;;;;;;;;5058520;28;20226;-85
2021/05/20 10:09:02;;;;;;;2.70;1.13;;;;;;;;;;5059016;28;20180;-85
2021/05/20 10:11:28;;;;;;;2.10;1.05;;;;;;;;;;5058739;28;20228;-84
2021/05/20 10:13:54;;;;;;;5.45;1.20;;;;;;;;;;5078134;28;20215;-85
2021/05/20 10:16:20;;;;;;;3.00;1.10;;;;;;;;;;5063205;28;20200;-84
2021/05/20 10:18:46;;;;;;;1.47;1.10;;;;;;;;;;5060975;28;20576;-84
2021/05/20 10:21:12;;;;;;;3.60;1.40;;;;;;;;;;5057783;28;20452;-83
2021/05/20 10:23:38;;;;;;;3.65;1.10;;;;;;;;;;5057213;28;20432;-83
2021/05/20 10:26:06;;;;;;;2.70;1.40;;;;;;;;;;5058805;28;20200;-84
2021/05/20 10:28:32;;;;;;;2.95;1.83;;;;;;;;;;5073289;28;20177;-83
2021/05/20 10:31:03;;;;;;;2.63;1.53;;;;;;;;;;5057707;28;20242;-83
2021/05/20 10:33:30;;;;;;;2.30;1.27;;;;;;;;;;5057557;28;20526;-85
2021/05/20 10:35:57;;;;;;;4.32;1.15;;;;;;;;;;5058805;28;20202;-84
2021/05/20 10:38:30;;;;;;;2.45;1.10;;;;;;;;;;5062434;28;20185;-83
2021/05/20 10:41:19;;;;;;;2.35;0.90;;;;;;;;;;5061493;28;20187;-85
2021/05/20 10:43:46;;;;;;;1.33;0.85;;;;;;;;;;5059441;28;20185;-81
2021/05/20 10:46:13;;;;;;;5.68;1.20;;;;;;;;;;5061788;28;20566;-85
2021/05/20 10:49:01;;;;;;;4.53;1.15;;;;;;;;;;5061119;28;20191;-83
2021/05/20 10:51:35;;;;;;;3.75;1.00;;;;;;;;;;5061220;28;20328;-85
2021/05/20 10:54:04;;;;;;;1.67;1.13;;;;;;;;;;5077683;28;20184;-82
2021/05/20 10:56:31;;;;;;;1.15;1.05;;;;;;;;;;5063145;28;20188;-84
2021/05/20 10:58:58;;;;;;;4.10;0.90;;;;;;;;;;5061867;28;20187;-83
2021/05/20 11:01:24;;;;;;;2.13;1.17;;;;;;;;;;5067320;28;20208;-85
2021/05/20 11:03:58;;;;;;;3.00;1.20;;;;;;;;;;5066381;28;20184;-86
2021/05/20 11:06:25;;;;;;;1.50;0.90;;;;;;;;;;5061715;28;20193;-84
2021/05/20 11:08:54;;;;;;;1.83;1.15;;;;;;;;;;5066725;28;20215;-85
2021/05/20 11:11:20;;;;;;;1.33;0.85;;;;;;;;;;5066174;28;20655;-87
2021/05/20 11:13:46;;;;;;;2.33;1.00;;;;;;;;;;5076342;28;20206;-83
2021/05/20 11:16:31;;;;;;;1.75;1.65;;;;;;;;;;5060851;28;20196;-82
2021/05/20 11:19:16;;;;;;;3.58;1.50;;;;;;;;;;5063008;28;20168;-84
2021/05/20 11:21:58;;;;;;;4.40;1.02;;;;;;;;;;5061610;28;20181;-83
2021/05/20 11:24:28;;;;;;;2.33;1.05;;;;;;;;;;5060539;28;20204;-85
2021/05/20 11:26:55;;;;;;;3.47;1.55;;;;;;;;;;5062134;28;20181;-85
2021/05/20 11:29:28;;;;;;;3.03;1.40;;;;;;;;;;5061872;28;20181;-87
2021/05/20 11:31:59;;;;;;;1.45;1.35;;;;;;;;;;5065951;28;20199;-84
2021/05/20 11:37:24;;;;;;;2.15;1.15;;;;;;;;;;5041935;28;20248;-85
2021/05/20 11:39:50;;;;;;;1.70;1.02;;;;;;;;;;5040720;28;20186;-83
2021/05/20 11:42:22;;;;;;;2.73;1.00;;;;;;;;;;5025123;28;20185;-82
2021/05/20 11:44:49;;;;;;;1.40;1.30;;;;;;;;;;5032255;28;20876;-83
2021/05/20 11:47:15;;;;;;;5.97;1.10;;;;;;;;;;5040590;28;20189;-84
2021/05/20 11:49:44;;;;;;;3.47;1.10;;;;;;;;;;5023854;28;20217;-84
2021/05/20 11:52:11;;;;;;;8.63;1.20;;;;;;;;;;5042020;28;20189;-82
2021/05/20 11:54:38;;;;;;;2.72;1.42;;;;;;;;;;5025063;28;20592;-83
2021/05/20 11:57:06;;;;;;;2.67;1.00;;;;;;;;;;5040626;28;20189;-87
2021/05/20 11:59:32;;;;;;;2.03;1.15;;;;;;;;;;5040257;28;20177;-82
2021/05/20 12:01:58;;;;;;;2.63;1.20;;;;;;;;;;5040146;28;20229;-84
2021/05/20 12:04:26;;;;;;;4.30;1.50;;;;;;;;;;5023836;28;20445;-84
2021/05/20 12:06:53;;;;;;;2.55;1.48;;;;;;;;;;5034525;28;20420;-81
2021/05/20 12:09:19;;;;;;;2.83;1.40;;;;;;;;;;5027885;28;20193;-82
2021/05/20 12:11:46;;;;;;;2.15;1.73;;;;;;;;;;5039922;28;20190;-84
2021/05/20 12:14:24;;;;;;;2.28;1.40;;;;;;;;;;5050041;28;20635;-84
2021/05/20 12:16:59;;;;;;;1.73;1.20;;;;;;;;;;5064803;28;20215;-82
2021/05/20 12:19:26;;;;;;;1.80;1.30;;;;;;;;;;5061854;28;20176;-82
2021/05/20 12:22:06;;;;;;;0.90;0.88;;;;;;;;;;5060990;28;20184;-84
2021/05/20 12:24:33;;;;;;;1.00;0.90;;;;;;;;;;5060692;28;20658;-84
2021/05/20 12:27:07;;;;;;;1.38;0.98;;;;;;;;;;5064406;28;20185;-82
2021/05/20 12:29:33;;;;;;;2.05;1.25;;;;;;;;;;5079930;28;20637;-84
2021/05/20 12:31:59;;;;;;;1.65;1.00;;;;;;;;;;5059847;28;20203;-84
2021/05/20 12:34:26;;;;;;;8.47;1.67;;;;;;;;;;5075505;28;20177;-84
2021/05/20 12:37:01;;;;;;;1.80;1.23;;;;;;;;;;5060086;28;20403;-84
2021/05/20 12:39:27;;;;;;;1.10;1.00;;;;;;;;;;5059633;28;20185;-83
2021/05/20 12:41:53;;;;;;;1.17;1.03;;;;;;;;;;5057423;28;20197;-86
2021/05/20 12:44:19;;;;;;;2.05;1.02;;;;;;;;;;5075520;28;20427;-84
2021/05/20 12:46:45;;;;;;;2.07;0.87;;;;;;;;;;5062479;28;20188;-84
2021/05/20 12:49:18;;;;;;;1.20;0.90;;;;;;;;;;5064126;28;20387;-83
2021/05/20 12:51:55;;;;;;;5.72;1.33;;;;;;;;;;5059220;28;20677;-85
2021/05/20 12:54:25;;;;;;;2.67;1.00;;;;;;;;;;5061820;28;20181;-84
2021/05/20 12:57:01;;;;;;;2.58;1.10;;;;;;;;;;5060791;28;20182;-83
2021/05/20 12:59:36;;;;;;;3.40;1.05;;;;;;;;;;5072215;28;20182;-84
2021/05/20 13:02:06;;;;;;;2.65;0.93;;;;;;;;;;5058432;28;20219;-80
2021/05/20 13:04:32;;;;;;;3.00;1.00;;;;;;;;;;5059093;28;20234;-85
2021/05/20 13:07:04;;;;;;;1.67;0.93;;;;;;;;;;5063173;28;20691;-86
2021/05/20 13:09:31;;;;;;;2.40;1.00;;;;;;;;;;5059951;28;20185;-83
2021/05/20 13:12:05;;;;;;;2.85;1.30;;;;;;;;;;5060422;28;20457;-85
2021/05/20 13:14:39;;;;;;;3.25;1.25;;;;;;;;;;5072946;28;20211;-83
2021/05/20 13:20:27;;;;;;;2.08;0.80;;;;;;;;;;5058468;28;20243;-83
2021/05/20 13:22:53;;;;;;;2.63;0.95;;;;;;;;;;5062598;28;20600;-84
2021/05/20 13:25:20;;;;;;;3.22;1.10;;;;;;;;;;5063891;28;20216;-86
2021/05/20 13:27:48;;;;;;;1.13;0.70;;;;;;;;;;5058500;28;20263;-85
2021/05/20 13:30:32;;;;;;;6.70;2.15;;;;;;;;;;5059160;28;20189;-83
2021/05/20 13:33:01;;;;;;;2.60;1.20;;;;;;;;;;5059549;28;20287;-84
2021/05/20 13:35:27;;;;;;;3.13;0.90;;;;;;;;;;5062774;28;20201;-86
2021/05/20 13:37:54;;;;;;;2.65;1.05;;;;;;;;;;5073364;28;20181;-85
2021/05/20 13:40:26;;;;;;;2.67;1.25;;;;;;;;;;5064083;28;20253;-84
2021/05/20 13:42:52;;;;;;;1.13;0.80;;;;;;;;;;5058288;28;20182;-84
2021/05/20 13:45:21;;;;;;;1.00;0.90;;;;;;;;;;5063223;28;20212;-83
2021/05/20 13:47:47;;;;;;;1.00;0.90;;;;;;;;;;5060699;28;20177;-83
2021/05/20 13:50:14;;;;;;;2.38;0.90;;;;;;;;;;5060224;28;20181;-82
2021/05/20 13:52:44;;;;;;;1.55;0.80;;;;;;;;;;5074031;28;20176;-84
2021/05/20 13:55:11;;;;;;;1.40;0.90;;;;;;;;;;5062481;28;20254;-85
2021/05/20 13:57:37;;;;;;;1.13;0.90;;;;;;;;;;5063322;28;20209;-86
2021/05/20 14:00:06;;;;;;;2.42;1.05;;;;;;;;;;5057427;28;20219;-82
2021/05/20 14:02:33;;;;;;;1.70;1.17;;;;;;;;;;5062348;28;20169;-82
2021/05/20 14:04:59;;;;;;;1.70;1.00;;;;;;;;;;5058582;28;20663;-84
2021/05/20 14:07:25;;;;;;;1.70;0.80;;;;;;;;;;5058680;28;20203;-82
2021/05/20 14:09:51;;;;;;;1.33;0.80;;;;;;;;;;5057040;28;20509;-87
2021/05/20 14:12:18;;;;;;;1.55;0.75;;;;;;;;;;5057840;28;20525;-83
2021/05/20 14:14:46;;;;;;;1.33;1.00;;;;;;;;;;5056212;28;20212;-84
2021/05/20 14:17:12;;;;;;;5.53;1.02;;;;;;;;;;5072162;28;20182;-83
2021/05/20 14:19:39;;;;;;;1.33;0.90;;;;;;;;;;5063085;28;20184;-81
2021/05/20 14:22:05;;;;;;;1.90;0.88;;;;;;;;;;5058263;28;20257;-83
2021/05/20 14:24:32;;;;;;;1.10;0.85;;;;;;;;;;5057654;28;20278;-81
2021/05/20 14:26:58;;;;;;;3.67;0.90;;;;;;;;;;5076445;28;20192;-84
2021/05/20 14:29:24;;;;;;;2.15;0.88;;;;;;;;;;5064759;28;20268;-81
2021/05/20 14:31:50;;;;;;;1.25;0.90;;;;;;;;;;5057021;28;20202;-84
2021/05/20 14:34:18;;;;;;;0.93;0.70;;;;;;;;;;5062385;28;20199;-83
2021/05/20 14:36:44;;;;;;;1.00;0.80;;;;;;;;;;5062698;28;20201;-83
2021/05/20 14:39:10;;;;;;;3.25;1.00;;;;;;;;;;5057782;28;20200;-82
2021/05/20 14:41:40;;;;;;;3.25;1.10;;;;;;;;;;5077159;28;20183;-83
2021/05/20 14:44:08;;;;;;;1.73;0.70;;;;;;;;;;5071463;28;20202;-84
2021/05/20 14:46:34;;;;;;;4.97;1.67;;;;;;;;;;5062307;28;20169;-83
2021/05/20 14:49:00;;;;;;;4.25;1.13;;;;;;;;;;5062746;28;20212;-84
2021/05/20 14:51:38;;;;;;;4.97;0.80;;;;;;;;;;5062160;28;20192;-85
2021/05/20 14:54:12;;;;;;;2.47;0.80;;;;;;;;;;5058446;28;20929;-83
2021/05/20 14:56:59;;;;;;;1.67;0.80;;;;;;;;;;5060348;28;20186;-82
2021/05/20 15:07:48;;;;;;;1.65;0.90;;;;;;;;;;5030881;28;20178;-87